createdAt,value
2019-03-08T05:03:25.438Z,96.008301
2019-03-08T05:07:01.973Z,96.417236
2019-03-08T05:10:29.936Z,96.624756
2019-03-08T05:13:57.780Z,96.728516
2019-03-08T05:17:25.636Z,97.039795
2019-03-08T05:20:53.478Z,97.44873
2019-03-08T05:24:21.402Z,97.967529
2019-03-08T05:27:49.254Z,98.321533
2019-03-08T05:31:17.238Z,98.736572
2019-03-08T05:34:45.076Z,98.944092
2019-03-08T05:38:12.936Z,99.151611
2019-03-08T05:41:40.807Z,99.249268
2019-03-08T05:45:08.659Z,99.456787
2019-03-08T05:48:36.527Z,99.621582
2019-03-08T05:52:04.437Z,99.768066
2019-03-08T05:55:32.356Z,99.822998
2019-03-08T05:59:00.212Z,99.926758
2019-03-08T06:02:28.073Z,99.993896
2019-03-08T06:05:55.919Z,99.993896
2019-03-08T06:09:23.882Z,99.993896
2019-03-08T06:12:51.738Z,99.993896
2019-03-08T06:16:19.576Z,99.993896
2019-03-08T06:19:47.433Z,99.993896
2019-03-08T06:23:15.287Z,99.993896
2019-03-08T06:26:43.121Z,99.993896
2019-03-08T06:30:10.981Z,99.993896
2019-03-08T06:33:39.830Z,99.993896
2019-03-08T06:37:07.677Z,99.993896
2019-03-08T06:40:35.513Z,99.884033
2019-03-08T06:44:03.371Z,99.572754
2019-03-08T06:47:31.236Z,99.157715
2019-03-08T06:50:59.081Z,99.365234
2019-03-08T06:54:27.000Z,99.572754
2019-03-08T06:57:54.842Z,99.780273
2019-03-08T07:01:22.680Z,99.572754
2019-03-08T07:04:50.538Z,99.780273
2019-03-08T07:08:18.383Z,99.987793
2019-03-08T07:11:46.229Z,99.938965
2019-03-08T07:15:14.068Z,99.993896
2019-03-08T07:18:41.921Z,99.993896
2019-03-08T07:22:09.775Z,99.993896
2019-03-08T07:25:37.612Z,99.993896
2019-03-08T07:29:07.455Z,99.938965
2019-03-08T07:32:35.308Z,99.993896
2019-03-08T07:36:04.137Z,99.938965
2019-03-08T07:39:31.990Z,99.938965
2019-03-08T07:42:59.837Z,99.993896
2019-03-08T07:46:27.708Z,99.993896
2019-03-08T07:49:55.556Z,99.731445
2019-03-08T07:53:23.411Z,99.835205
2019-03-08T07:56:51.251Z,99.938965
2019-03-08T08:00:19.113Z,99.835205
2019-03-08T08:03:46.968Z,99.835205
2019-03-08T08:07:14.815Z,99.835205
2019-03-08T08:10:42.667Z,99.938965
2019-03-08T08:14:10.528Z,99.938965
2019-03-08T08:17:38.393Z,99.993896
2019-03-08T08:21:06.332Z,99.993896
2019-03-08T08:24:34.374Z,99.993896
2019-03-08T08:28:02.342Z,99.993896
2019-03-08T08:31:30.329Z,99.993896
2019-03-08T08:34:58.197Z,99.993896
2019-03-08T08:38:26.066Z,99.993896
2019-03-08T08:41:53.991Z,98.803711
2019-03-08T08:45:21.851Z,98.33374
2019-03-08T08:48:49.771Z,97.967529
2019-03-08T08:52:17.699Z,98.175049
2019-03-08T08:55:45.543Z,97.344971
2019-03-08T08:59:13.454Z,97.290039
2019-03-08T09:02:41.324Z,97.601318
2019-03-08T09:06:09.209Z,96.97876
2019-03-08T09:09:37.071Z,96.154785
2019-03-08T09:13:04.992Z,95.697021
2019-03-08T09:16:32.879Z,94.873047
2019-03-08T09:20:00.831Z,93.731689
2019-03-08T09:23:28.683Z,93.634033
2019-03-08T09:26:56.595Z,93.17627
2019-03-08T09:30:24.551Z,91.937256
2019-03-08T09:33:52.476Z,89.770508
2019-03-08T09:37:20.368Z,90.283203
2019-03-08T09:40:48.262Z,89.459229
2019-03-08T09:44:16.139Z,89.154053
2019-03-08T09:47:45.054Z,88.592529
2019-03-08T09:51:12.896Z,87.316895
2019-03-08T09:54:40.753Z,84.674072
2019-03-08T09:58:09.592Z,83.850098
2019-03-08T10:01:37.439Z,82.714844
2019-03-08T10:05:06.266Z,81.57959
2019-03-08T10:08:34.118Z,79.620361
2019-03-08T10:12:01.967Z,80.13916
2019-03-08T10:15:29.803Z,79.412842
2019-03-08T10:18:57.667Z,79.47998
2019-03-08T10:22:25.517Z,77.587891
2019-03-08T10:25:53.386Z,75.732422
2019-03-08T10:29:22.234Z,76.147461
2019-03-08T10:32:50.087Z,73.779297
2019-03-08T10:36:17.921Z,73.052979
2019-03-08T10:39:45.780Z,73.22998
2019-03-08T10:43:13.641Z,72.302246
2019-03-08T10:46:41.493Z,72.167969
2019-03-08T10:50:09.347Z,70.385742
2019-03-08T10:53:37.197Z,69.287109
2019-03-08T10:57:05.033Z,69.396973
2019-03-08T11:00:32.885Z,69.775391
2019-03-08T11:04:00.742Z,67.889404
2019-03-08T11:07:36.649Z,67.578125
2019-03-08T11:11:07.447Z,66.894531
2019-03-08T11:14:35.326Z,65.966797
2019-03-08T11:18:03.176Z,63.342285
2019-03-08T11:21:32.049Z,62.04834
2019-03-08T11:25:07.633Z,62.402344
2019-03-08T11:28:32.757Z,60.968018
2019-03-08T11:32:00.650Z,59.973145
2019-03-08T11:35:28.519Z,59.503174
2019-03-08T11:38:56.406Z,60.540771
2019-03-08T11:42:24.346Z,62.72583
2019-03-08T11:45:53.219Z,62.298584
2019-03-08T11:49:21.103Z,61.920166
2019-03-08T11:52:48.984Z,62.1521
2019-03-08T11:56:16.893Z,59.179688
2019-03-08T11:59:46.589Z,57.58667
2019-03-08T12:03:14.506Z,56.561279
2019-03-08T12:06:42.386Z,56.738281
2019-03-08T12:10:11.216Z,56.225586
2019-03-08T12:13:39.767Z,55.584717
2019-03-08T12:17:07.862Z,55.383301
2019-03-08T12:20:37.411Z,55.664062
2019-03-08T12:24:05.326Z,54.821777
2019-03-08T12:27:33.243Z,55.358887
2019-03-08T12:31:02.163Z,55.047607
2019-03-08T12:34:30.040Z,54.101562
2019-03-08T12:37:57.908Z,54.870605
2019-03-08T12:41:25.861Z,55.688477
2019-03-08T12:44:53.775Z,54.846191
2019-03-08T12:48:23.990Z,54.35791
2019-03-08T12:51:51.598Z,54.638672
2019-03-08T12:55:19.502Z,54.284668
2019-03-08T12:58:47.456Z,54.870605
2019-03-08T13:02:15.367Z,52.746582
2019-03-08T13:05:43.251Z,54.35791
2019-03-08T13:09:13.151Z,52.416992
2019-03-08T13:12:41.020Z,54.46167
2019-03-08T13:16:08.891Z,56.408691
2019-03-08T13:19:36.769Z,56.097412
2019-03-08T13:23:04.621Z,56.201172
2019-03-08T13:26:32.541Z,57.147217
2019-03-08T13:30:00.495Z,55.175781
2019-03-08T13:33:29.349Z,56.713867
2019-03-08T13:36:58.217Z,55.584717
2019-03-08T13:40:26.073Z,57.458496
2019-03-08T13:43:53.927Z,57.794189
2019-03-08T13:47:22.785Z,57.427979
2019-03-08T13:50:50.666Z,57.122803
2019-03-08T13:54:19.537Z,57.354736
2019-03-08T13:57:47.414Z,56.713867
2019-03-08T14:01:15.382Z,56.225586
2019-03-08T14:04:43.235Z,56.506348
2019-03-08T14:08:11.138Z,56.329346
2019-03-08T14:11:39.011Z,56.738281
2019-03-08T14:15:07.892Z,56.561279
2019-03-08T14:18:35.789Z,56.842041
2019-03-08T14:22:04.313Z,56.970215
2019-03-08T14:25:32.247Z,57.995605
2019-03-08T14:29:01.093Z,57.281494
2019-03-08T14:32:28.990Z,58.099365
2019-03-08T14:35:57.915Z,57.58667
2019-03-08T14:39:28.780Z,58.331299
2019-03-08T14:42:56.677Z,58.331299
2019-03-08T14:46:24.582Z,58.770752
2019-03-08T14:49:55.165Z,60.205078
2019-03-08T14:53:28.295Z,58.868408
2019-03-08T14:56:57.098Z,58.459473
2019-03-08T15:00:28.967Z,59.588623
2019-03-08T15:03:57.798Z,58.459473
2019-03-08T15:07:25.768Z,59.716797
2019-03-08T15:10:53.621Z,60.131836
2019-03-08T15:14:21.509Z,59.484863
2019-03-08T15:17:53.456Z,59.515381
2019-03-08T15:21:20.231Z,58.972168
2019-03-08T15:24:48.386Z,58.740234
2019-03-08T15:28:18.240Z,57.513428
2019-03-08T15:31:46.131Z,58.050537
2019-03-08T15:35:14.051Z,59.0271
2019-03-08T15:38:41.932Z,60.083008
2019-03-08T15:42:09.823Z,61.523438
2019-03-08T15:45:39.929Z,61.315918
2019-03-08T15:49:10.510Z,61.346436
2019-03-08T15:52:38.378Z,60.418701
2019-03-08T15:56:06.226Z,60.931396
2019-03-08T15:59:34.135Z,60.827637
2019-03-08T16:03:02.995Z,61.883545
2019-03-08T16:06:30.856Z,62.841797
2019-03-08T16:09:59.744Z,63.48877
2019-03-08T16:13:28.667Z,63.690186
2019-03-08T16:16:56.522Z,64.959717
2019-03-08T16:20:24.419Z,65.783691
2019-03-08T16:23:59.410Z,65.887451
2019-03-08T16:27:27.262Z,65.679932
2019-03-08T16:30:55.113Z,65.50293
2019-03-08T16:34:22.975Z,66.119385
2019-03-08T16:37:50.857Z,66.564941
2019-03-08T16:41:18.703Z,67.077637
2019-03-08T16:44:46.579Z,68.005371
2019-03-08T16:48:14.448Z,69.689941
2019-03-08T16:51:42.337Z,70.202637
2019-03-08T16:55:10.315Z,70.922852
2019-03-08T16:58:38.179Z,71.063232
2019-03-08T17:02:06.129Z,71.368408
2019-03-08T17:05:34.009Z,71.368408
2019-03-08T17:09:01.880Z,72.125244
2019-03-08T17:12:29.740Z,72.845459
2019-03-08T17:15:57.678Z,73.052979
2019-03-08T17:19:26.534Z,72.77832
2019-03-08T17:22:54.372Z,72.058105
2019-03-08T17:26:23.226Z,71.643066
2019-03-08T17:29:51.086Z,71.124268
2019-03-08T17:33:18.925Z,71.124268
2019-03-08T17:36:46.791Z,70.916748
2019-03-08T17:40:14.671Z,71.160889
2019-03-08T17:43:43.512Z,70.953369
2019-03-08T17:47:11.391Z,71.264648
2019-03-08T17:50:39.254Z,70.849609
2019-03-08T17:54:07.120Z,70.74585
2019-03-08T17:57:34.995Z,70.43457
2019-03-08T18:01:02.866Z,70.64209
2019-03-08T18:04:30.714Z,70.953369
2019-03-08T18:07:58.580Z,70.64209
2019-03-08T18:11:27.446Z,71.057129
2019-03-08T18:14:58.275Z,71.264648
2019-03-08T18:18:32.311Z,72.015381
2019-03-08T18:22:03.559Z,71.917725
2019-03-08T18:25:31.413Z,71.917725
2019-03-08T18:28:59.291Z,71.813965
2019-03-08T18:32:27.158Z,72.119141
2019-03-08T18:35:55.017Z,72.015381
2019-03-08T18:39:23.827Z,72.015381
2019-03-08T18:42:51.698Z,72.32666
2019-03-08T18:46:19.690Z,72.2229
2019-03-08T18:49:48.183Z,72.2229
2019-03-08T18:53:16.044Z,72.77832
2019-03-08T18:56:43.885Z,73.291016
2019-03-08T19:00:11.764Z,73.498535
2019-03-08T19:03:45.449Z,72.979736
2019-03-08T19:07:13.398Z,73.602295
2019-03-08T19:10:41.636Z,73.394775
2019-03-08T19:14:09.563Z,73.706055
2019-03-08T19:17:37.425Z,74.017334
2019-03-08T19:21:05.301Z,73.498535
2019-03-08T19:24:33.256Z,73.913574
2019-03-08T19:28:01.120Z,73.394775
2019-03-08T19:31:29.015Z,74.017334
2019-03-08T19:34:56.892Z,73.602295
2019-03-08T19:38:24.749Z,73.876953
2019-03-08T19:41:52.741Z,73.773193
2019-03-08T19:45:22.113Z,74.291992
2019-03-08T19:48:49.527Z,74.395752
2019-03-08T19:52:20.792Z,74.499512
2019-03-08T19:55:48.703Z,74.395752
2019-03-08T19:59:16.682Z,74.188232
2019-03-08T20:02:44.701Z,73.431396
2019-03-08T20:06:17.246Z,73.846436
2019-03-08T20:09:46.649Z,73.980713
2019-03-08T20:13:17.124Z,73.156738
2019-03-08T20:16:47.861Z,73.602295
2019-03-08T20:20:21.317Z,73.706055
2019-03-08T20:23:49.165Z,74.017334
2019-03-08T20:27:17.075Z,74.432373
2019-03-08T20:30:44.995Z,74.224854
2019-03-08T20:34:13.913Z,73.913574
2019-03-08T20:37:41.751Z,74.462891
2019-03-08T20:41:09.644Z,74.77417
2019-03-08T20:44:37.581Z,75.292969
2019-03-08T20:48:05.572Z,75.604248
2019-03-08T20:51:33.463Z,76.013184
2019-03-08T20:55:01.447Z,77.46582
2019-03-08T20:58:30.311Z,77.191162
2019-03-08T21:01:58.196Z,77.807617
2019-03-08T21:05:26.124Z,77.600098
2019-03-08T21:08:54.019Z,77.288818
2019-03-08T21:12:21.968Z,77.288818
2019-03-08T21:15:49.819Z,76.568604
2019-03-08T21:19:17.720Z,77.191162
2019-03-08T21:22:45.757Z,77.844238
2019-03-08T21:26:13.738Z,78.259277
2019-03-08T21:29:41.619Z,78.466797
2019-03-08T21:33:09.515Z,78.363037
2019-03-08T21:36:37.409Z,78.466797
2019-03-08T21:40:05.277Z,77.844238
2019-03-08T21:43:33.152Z,78.051758
2019-03-08T21:47:01.011Z,78.155518
2019-03-08T21:50:28.859Z,78.399658
2019-03-08T21:53:57.722Z,78.814697
2019-03-08T21:57:26.651Z,78.607178
2019-03-08T22:00:54.586Z,79.638672
2019-03-08T22:04:23.124Z,79.742432
2019-03-08T22:07:51.996Z,79.541016
2019-03-08T22:11:19.910Z,80.297852
2019-03-08T22:14:47.765Z,80.401611
2019-03-08T22:18:16.626Z,80.297852
2019-03-08T22:21:44.493Z,80.505371
2019-03-08T22:25:12.364Z,80.401611
2019-03-08T22:28:40.247Z,80.749512
2019-03-08T22:32:15.655Z,80.438232
2019-03-08T22:35:43.496Z,80.645752
2019-03-08T22:39:11.366Z,80.853271
2019-03-08T22:42:40.270Z,80.749512
2019-03-08T22:46:08.129Z,81.304932
2019-03-08T22:49:35.974Z,80.993652
2019-03-08T22:53:03.816Z,80.578613
2019-03-08T22:56:31.683Z,80.993652
2019-03-08T22:59:59.546Z,80.682373
